SBLS

Details ICAO SBLS
Name LAGOA SANTA
Region Brazil
Timezone America/Sao_Paulo (UTC-3.0)
Plans Departing 3
Arriving 3
Stats Elevation 2,795 ft / 852 m (AMSL)
Location -19.661611° -43.896402°
Runways 1
Magnetic Variation 22.866° W
Sunrise 2018-05-25 09:21:37 UTC / 2018-05-25 06:21:37 Local
Sunset 2018-05-25 20:26:20 UTC / 2018-05-25 17:26:20 Local
Advertisement - Login to hide

Runways

ID Width Length Bearing (true) Bearing (mag) Surface Threshold Offset Overrun Length
13 98 ft / 30 m 6,031 ft / 1,838 m 105.40° 128.27° Asphalt 0 ft / 0 m 0 ft / 0 m
31 98 ft / 30 m 6,031 ft / 1,838 m 285.40° 308.27° Asphalt 0 ft / 0 m 0 ft / 0 m

Map

Weather


0- 5 10 15 20 25 30 35+ Temperature / ° C

Clouds and Precipitation
Forecast for 2018-05-25 12:00 UTC. Updated 4 hours ago

Ground ~20,000 ft ~40,000 ft Winds

METAR

SBLS 251400Z 12007KT 9999 SCT027 SCT080 23/14 Q1025

TAF

Not found

Frequencies

Tower 122.80 MHz RDO
Warning: Do not use this data for real-world aviation or navigation. No guarantee of current accuracy is given.